Time;durP1;ratioP1;P1;durP2;ratioP2;P2;SDS_P1;SDS_P2;PMS_P1;PMS_P2;Temp;Humidity;BMP_temperature;BMP_pressure;BME280_temperature;BME280_humidity;BME280_pressure;Samples;Min_cycle;Max_cycle;Signal;HPM_P1;HPM_P2
2023/09/26 00:01:32;;;;;;;1.58;1.10;;;;;;;;;;10305891;28;20500;-77
2023/09/26 00:06:35;;;;;;;1.52;0.90;;;;;;;;;;10339321;28;20042;-77
2023/09/26 00:11:42;;;;;;;1.65;1.10;;;;;;;;;;10323912;28;20061;-77
2023/09/26 00:16:45;;;;;;;1.10;1.00;;;;;;;;;;10328690;28;20043;-77
2023/09/26 00:21:49;;;;;;;1.50;1.10;;;;;;;;;;10321029;28;20046;-76
2023/09/26 00:26:55;;;;;;;1.50;1.05;;;;;;;;;;10331036;28;20130;-77
2023/09/26 00:31:59;;;;;;;1.70;0.98;;;;;;;;;;10321029;28;20077;-77
2023/09/26 00:37:02;;;;;;;1.52;1.10;;;;;;;;;;10324104;28;20047;-77
2023/09/26 00:42:10;;;;;;;1.95;1.10;;;;;;;;;;10314354;28;20051;-77
2023/09/26 00:47:13;;;;;;;3.05;0.88;;;;;;;;;;10320802;28;20134;-77
2023/09/26 00:52:17;;;;;;;1.10;1.00;;;;;;;;;;10320979;28;20125;-77
2023/09/26 00:57:23;;;;;;;1.00;0.93;;;;;;;;;;10319562;28;20041;-77
2023/09/26 01:02:27;;;;;;;0.80;0.80;;;;;;;;;;10308330;28;20046;-77
2023/09/26 01:07:31;;;;;;;1.77;1.00;;;;;;;;;;10317611;28;20042;-77
2023/09/26 01:12:38;;;;;;;1.20;1.00;;;;;;;;;;10311081;28;20050;-77
2023/09/26 01:17:42;;;;;;;;;;;;;;;;;;10321025;28;20057;-77
2023/09/26 01:22:46;;;;;;;1.23;0.70;;;;;;;;;;10339205;28;19926;-77
2023/09/26 01:27:51;;;;;;;2.53;1.10;;;;;;;;;;10317598;28;20043;-77
2023/09/26 01:32:55;;;;;;;1.30;1.15;;;;;;;;;;10348404;28;20061;-77
2023/09/26 01:37:58;;;;;;;2.42;1.10;;;;;;;;;;10342259;28;20276;-77
2023/09/26 01:43:03;;;;;;;1.52;1.13;;;;;;;;;;10389248;22;20448;-76
2023/09/26 01:48:09;;;;;;;4.00;0.95;;;;;;;;;;10313400;28;20385;-76
2023/09/26 01:53:13;;;;;;;4.57;1.38;;;;;;;;;;10299282;28;20058;-77
2023/09/26 01:58:18;;;;;;;1.88;1.00;;;;;;;;;;10297852;28;20043;-78
2023/09/26 02:03:22;;;;;;;2.10;1.20;;;;;;;;;;10299663;28;20050;-78
2023/09/26 02:08:26;;;;;;;2.15;1.00;;;;;;;;;;10292765;28;20069;-78
2023/09/26 02:13:32;;;;;;;1.75;1.00;;;;;;;;;;10301210;28;20039;-78
2023/09/26 02:18:35;;;;;;;1.33;1.20;;;;;;;;;;10295209;28;20161;-78
2023/09/26 02:23:38;;;;;;;1.33;1.02;;;;;;;;;;10306367;28;20471;-78
2023/09/26 02:28:43;;;;;;;2.60;1.17;;;;;;;;;;10294096;28;20047;-78
2023/09/26 02:33:46;;;;;;;1.52;1.10;;;;;;;;;;10300773;28;20161;-77
2023/09/26 02:38:50;;;;;;;1.27;0.98;;;;;;;;;;10298516;28;20149;-77
2023/09/26 02:43:55;;;;;;;1.02;0.80;;;;;;;;;;10297900;28;20140;-77
2023/09/26 02:49:00;;;;;;;1.40;1.07;;;;;;;;;;10291215;28;20125;-77
2023/09/26 02:54:03;;;;;;;1.92;1.08;;;;;;;;;;10297328;28;20626;-78
2023/09/26 02:59:08;;;;;;;1.17;1.08;;;;;;;;;;10302503;28;20039;-77
2023/09/26 03:04:11;;;;;;;2.03;1.05;;;;;;;;;;10312018;28;20043;-78
2023/09/26 03:09:15;;;;;;;6.82;1.33;;;;;;;;;;10312788;28;20046;-76
2023/09/26 03:14:21;;;;;;;1.20;1.00;;;;;;;;;;10304654;28;20152;-78
2023/09/26 03:19:24;;;;;;;2.45;1.10;;;;;;;;;;10304195;28;20061;-78
2023/09/26 03:24:28;;;;;;;1.10;0.90;;;;;;;;;;10297612;28;20600;-77
2023/09/26 03:29:33;;;;;;;1.25;1.10;;;;;;;;;;10287966;28;20074;-78
2023/09/26 03:34:36;;;;;;;1.20;1.00;;;;;;;;;;10308773;28;20105;-78
2023/09/26 03:39:39;;;;;;;1.00;0.90;;;;;;;;;;10288273;28;20209;-77
2023/09/26 03:44:45;;;;;;;36.40;3.42;;;;;;;;;;10297055;28;20138;-76
2023/09/26 03:49:52;;;;;;;17.90;3.35;;;;;;;;;;10299342;28;20046;-76
2023/09/26 03:54:55;;;;;;;8.88;1.98;;;;;;;;;;10302272;28;20511;-76
2023/09/26 04:00:00;;;;;;;26.58;2.83;;;;;;;;;;10307900;28;20129;-78
2023/09/26 04:05:13;;;;;;;13.27;1.90;;;;;;;;;;10296858;28;20051;-78
2023/09/26 04:10:17;;;;;;;4.15;1.20;;;;;;;;;;10299075;28;20490;-78
2023/09/26 04:15:24;;;;;;;6.03;1.50;;;;;;;;;;10294869;28;20043;-78
2023/09/26 04:20:28;;;;;;;5.72;1.60;;;;;;;;;;10293456;28;20046;-77
2023/09/26 04:25:39;;;;;;;12.07;1.65;;;;;;;;;;10302069;28;20050;-78
2023/09/26 04:30:43;;;;;;;10.27;1.35;;;;;;;;;;10303520;28;20066;-78
2023/09/26 04:35:47;;;;;;;24.33;2.50;;;;;;;;;;10301494;28;20094;-78
2023/09/26 04:40:50;;;;;;;15.70;1.52;;;;;;;;;;10293860;28;20057;-78
2023/09/26 04:45:55;;;;;;;3.65;1.30;;;;;;;;;;10295140;28;20416;-78
2023/09/26 04:50:58;;;;;;;2.17;1.20;;;;;;;;;;10286727;28;20062;-77
2023/09/26 04:56:02;;;;;;;10.88;1.42;;;;;;;;;;10288751;28;20367;-78
2023/09/26 05:01:14;;;;;;;3.70;1.30;;;;;;;;;;10295917;28;20135;-78
2023/09/26 05:06:18;;;;;;;2.47;1.17;;;;;;;;;;10295996;28;20054;-78
2023/09/26 05:11:21;;;;;;;2.05;1.40;;;;;;;;;;10296671;28;20149;-78
2023/09/26 05:16:26;;;;;;;2.65;1.30;;;;;;;;;;10318006;28;20141;-78
2023/09/26 05:21:29;;;;;;;3.75;1.20;;;;;;;;;;10308481;28;20130;-78
2023/09/26 05:26:33;;;;;;;2.50;1.40;;;;;;;;;;10298616;28;20102;-78
2023/09/26 05:31:37;;;;;;;2.35;1.20;;;;;;;;;;10308854;28;20422;-78
2023/09/26 05:36:40;;;;;;;2.88;1.50;;;;;;;;;;10327630;28;20055;-78
2023/09/26 05:41:44;;;;;;;2.92;1.20;;;;;;;;;;10316293;28;20133;-78
2023/09/26 05:46:48;;;;;;;1.70;1.30;;;;;;;;;;10300621;28;20129;-78
2023/09/26 05:51:53;;;;;;;1.03;0.93;;;;;;;;;;10303477;28;20062;-78
2023/09/26 05:56:56;;;;;;;1.38;0.90;;;;;;;;;;10305197;28;20105;-78
2023/09/26 06:02:01;;;;;;;1.55;1.00;;;;;;;;;;10303492;28;20061;-78
2023/09/26 06:07:04;;;;;;;2.42;1.40;;;;;;;;;;10305893;28;20050;-78
2023/09/26 06:12:07;;;;;;;4.05;1.65;;;;;;;;;;10309172;28;20128;-78
2023/09/26 06:17:12;;;;;;;1.50;1.33;;;;;;;;;;10312058;28;20133;-78
2023/09/26 06:22:16;;;;;;;1.25;1.05;;;;;;;;;;10303517;28;20067;-78
2023/09/26 06:27:19;;;;;;;2.67;1.48;;;;;;;;;;10307791;28;20129;-78
2023/09/26 06:32:24;;;;;;;1.92;1.30;;;;;;;;;;10301699;28;20138;-78
2023/09/26 06:37:27;;;;;;;2.05;1.23;;;;;;;;;;10311618;28;20054;-78
2023/09/26 06:42:31;;;;;;;26.65;3.90;;;;;;;;;;10311337;28;20046;-78
2023/09/26 06:47:35;;;;;;;12.20;1.95;;;;;;;;;;10308727;28;20500;-78
2023/09/26 06:52:39;;;;;;;7.28;1.90;;;;;;;;;;10297351;28;20062;-78
2023/09/26 06:57:42;;;;;;;6.22;1.58;;;;;;;;;;10315440;28;20527;-78
2023/09/26 07:02:47;;;;;;;1.70;1.20;;;;;;;;;;10309905;28;20058;-78
2023/09/26 07:07:51;;;;;;;2.45;1.20;;;;;;;;;;10314611;28;20051;-78
2023/09/26 07:12:55;;;;;;;2.40;1.02;;;;;;;;;;10318604;28;20059;-78
2023/09/26 07:18:03;;;;;;;1.38;1.00;;;;;;;;;;10310179;28;20046;-77
2023/09/26 07:23:07;;;;;;;3.17;1.17;;;;;;;;;;10313890;28;20046;-78
2023/09/26 07:28:10;;;;;;;1.83;0.93;;;;;;;;;;10320763;28;20066;-79
2023/09/26 07:33:15;;;;;;;1.10;1.00;;;;;;;;;;10327025;28;20085;-78
2023/09/26 07:38:18;;;;;;;1.30;1.02;;;;;;;;;;10308108;28;20137;-78
2023/09/26 08:15:41;;;;;;;1.15;1.00;;;;;;;;;;10239954;28;20066;-84
2023/09/26 08:20:44;;;;;;;1.63;1.42;;;;;;;;;;10248332;28;20050;-85
2023/09/26 08:25:48;;;;;;;1.27;1.05;;;;;;;;;;10255488;28;20534;-86
2023/09/26 08:30:56;;;;;;;2.30;1.05;;;;;;;;;;10268715;28;20051;-86
2023/09/26 08:35:59;;;;;;;1.60;1.30;;;;;;;;;;10270816;28;20051;-86
2023/09/26 08:41:06;;;;;;;1.58;1.30;;;;;;;;;;10271375;28;20066;-85
2023/09/26 08:46:12;;;;;;;2.45;1.67;;;;;;;;;;10294764;28;20053;-88
2023/09/26 08:51:15;;;;;;;5.57;1.20;;;;;;;;;;10293288;28;20067;-88
2023/09/26 08:56:19;;;;;;;1.48;0.68;;;;;;;;;;10293770;28;20569;-88
2023/09/26 09:01:25;;;;;;;1.63;1.00;;;;;;;;;;10296324;28;20051;-88
2023/09/26 09:06:29;;;;;;;1.40;1.30;;;;;;;;;;10296122;28;20059;-88
2023/09/26 09:11:33;;;;;;;1.30;1.00;;;;;;;;;;10311166;28;20438;-88
2023/09/26 09:16:38;;;;;;;1.30;1.20;;;;;;;;;;10294493;28;20457;-88
2023/09/26 09:21:41;;;;;;;2.15;0.80;;;;;;;;;;10310709;28;20055;-88
2023/09/26 09:26:45;;;;;;;2.95;1.20;;;;;;;;;;10296687;28;20051;-89
2023/09/26 09:31:51;;;;;;;1.33;0.90;;;;;;;;;;10293931;28;20087;-89
2023/09/26 09:36:56;;;;;;;0.98;0.75;;;;;;;;;;10293849;28;20050;-89
2023/09/26 09:42:03;;;;;;;1.42;1.00;;;;;;;;;;10309199;28;20055;-88
2023/09/26 09:47:11;;;;;;;2.38;1.77;;;;;;;;;;10280210;28;20523;-89
2023/09/26 09:52:18;;;;;;;4.40;1.42;;;;;;;;;;10256768;28;20074;-88
2023/09/26 09:57:24;;;;;;;2.55;1.55;;;;;;;;;;10250263;28;20051;-88
2023/09/26 10:02:29;;;;;;;3.22;1.60;;;;;;;;;;10252505;28;20051;-88
2023/09/26 10:07:34;;;;;;;2.78;1.20;;;;;;;;;;10276227;28;20507;-88
2023/09/26 10:12:38;;;;;;;2.92;1.20;;;;;;;;;;10272370;28;20062;-89
2023/09/26 10:17:48;;;;;;;2.20;1.42;;;;;;;;;;10245207;29;20099;-88
2023/09/26 10:23:10;;;;;;;2.05;1.08;;;;;;;;;;10235794;28;20110;-88
2023/09/26 10:28:16;;;;;;;2.08;1.00;;;;;;;;;;10288525;28;20058;-89
2023/09/26 10:33:21;;;;;;;1.67;1.02;;;;;;;;;;10268962;28;20047;-90
2023/09/26 10:38:30;;;;;;;1.20;0.95;;;;;;;;;;10254000;28;20047;-90
2023/09/26 10:43:34;;;;;;;1.52;1.10;;;;;;;;;;10304683;28;20070;-89
2023/09/26 10:48:49;;;;;;;0.90;0.70;;;;;;;;;;10275903;28;20055;-90
2023/09/26 10:53:52;;;;;;;1.23;0.93;;;;;;;;;;10276271;28;20098;-91
2023/09/26 10:58:56;;;;;;;3.40;1.10;;;;;;;;;;10253660;28;20514;-91
2023/09/26 11:04:01;;;;;;;1.05;0.70;;;;;;;;;;10264189;28;20458;-90
2023/09/26 11:09:05;;;;;;;1.35;0.73;;;;;;;;;;10265580;28;20106;-89
2023/09/26 11:14:09;;;;;;;1.00;0.60;;;;;;;;;;10249659;28;20089;-89
2023/09/26 11:19:14;;;;;;;1.15;0.80;;;;;;;;;;10280406;28;20058;-92
2023/09/26 11:24:22;;;;;;;1.83;1.10;;;;;;;;;;10306208;28;20517;-90
2023/09/26 11:29:26;;;;;;;1.63;1.13;;;;;;;;;;10292187;28;20067;-91
2023/09/26 11:34:31;;;;;;;1.55;1.00;;;;;;;;;;10221377;28;20055;-91
2023/09/26 11:39:35;;;;;;;2.07;1.10;;;;;;;;;;10288114;28;20043;-91
2023/09/26 11:44:38;;;;;;;1.33;1.10;;;;;;;;;;10259217;28;20321;-90
2023/09/26 11:49:43;;;;;;;1.88;1.15;;;;;;;;;;10243402;28;20127;-90
2023/09/26 11:54:47;;;;;;;1.10;0.80;;;;;;;;;;10288303;28;20078;-90
2023/09/26 11:59:51;;;;;;;1.35;0.85;;;;;;;;;;10266650;28;20040;-91
2023/09/26 12:04:56;;;;;;;1.48;1.00;;;;;;;;;;10287471;28;20102;-91
2023/09/26 12:09:59;;;;;;;1.27;0.90;;;;;;;;;;10293440;28;20137;-91
2023/09/26 12:15:20;;;;;;;0.93;0.65;;;;;;;;;;10293277;28;20146;-91
2023/09/26 12:20:25;;;;;;;2.58;0.60;;;;;;;;;;10252699;28;20095;-91
2023/09/26 12:25:30;;;;;;;1.13;0.73;;;;;;;;;;10249482;28;20302;-91
2023/09/26 12:30:33;;;;;;;0.68;0.68;;;;;;;;;;10266513;28;20366;-91
2023/09/26 12:35:38;;;;;;;1.15;0.90;;;;;;;;;;10268033;28;20056;-90
2023/09/26 12:40:42;;;;;;;0.93;0.70;;;;;;;;;;10289512;28;20055;-91
2023/09/26 12:45:45;;;;;;;0.85;0.80;;;;;;;;;;10292253;28;20055;-91
2023/09/26 12:50:50;;;;;;;1.02;0.85;;;;;;;;;;10289135;28;20133;-92
2023/09/26 12:55:54;;;;;;;0.50;0.40;;;;;;;;;;10259117;28;20058;-90
2023/09/26 13:00:58;;;;;;;1.02;0.70;;;;;;;;;;10267587;28;20055;-90
2023/09/26 13:06:03;;;;;;;1.13;0.70;;;;;;;;;;10239041;28;20107;-90
2023/09/26 13:11:07;;;;;;;3.10;0.80;;;;;;;;;;10235212;28;20043;-91
2023/09/26 13:16:11;;;;;;;2.13;0.80;;;;;;;;;;10272225;28;20561;-90
2023/09/26 13:21:18;;;;;;;1.77;0.90;;;;;;;;;;10230510;28;20067;-90
2023/09/26 13:26:21;;;;;;;2.35;0.80;;;;;;;;;;10284873;28;20102;-91
2023/09/26 13:31:25;;;;;;;0.98;0.60;;;;;;;;;;10294088;28;20458;-91
2023/09/26 13:36:31;;;;;;;1.08;0.50;;;;;;;;;;10294857;28;20052;-92
2023/09/26 13:41:35;;;;;;;0.90;0.40;;;;;;;;;;10315090;23;20047;-77
2023/09/26 13:46:38;;;;;;;1.02;0.68;;;;;;;;;;10257553;28;20067;-77
2023/09/26 13:51:42;;;;;;;1.00;0.80;;;;;;;;;;10257225;28;20075;-77
2023/09/26 13:56:46;;;;;;;2.25;0.70;;;;;;;;;;10261254;28;20142;-78
2023/09/26 14:01:49;;;;;;;0.98;0.63;;;;;;;;;;10271856;28;20432;-78
2023/09/26 14:06:54;;;;;;;0.70;0.50;;;;;;;;;;10261531;28;20138;-77
2023/09/26 14:11:57;;;;;;;1.10;0.75;;;;;;;;;;10276379;28;20508;-77
2023/09/26 14:17:01;;;;;;;1.60;0.70;;;;;;;;;;10269397;28;20137;-77
2023/09/26 14:22:05;;;;;;;0.63;0.60;;;;;;;;;;10276826;28;20619;-77
2023/09/26 14:27:08;;;;;;;0.73;0.57;;;;;;;;;;10276760;28;20077;-77
2023/09/26 14:32:12;;;;;;;0.82;0.70;;;;;;;;;;10261778;28;20049;-78
2023/09/26 14:37:16;;;;;;;0.80;0.50;;;;;;;;;;10262342;28;20082;-78
2023/09/26 14:42:20;;;;;;;1.40;0.90;;;;;;;;;;10250718;28;20051;-78
2023/09/26 14:47:23;;;;;;;2.42;0.80;;;;;;;;;;10278197;28;20682;-77
2023/09/26 14:52:28;;;;;;;1.10;0.90;;;;;;;;;;10266825;28;20122;-77
2023/09/26 14:57:31;;;;;;;5.30;1.10;;;;;;;;;;10271259;28;20126;-77
2023/09/26 15:02:34;;;;;;;1.65;0.60;;;;;;;;;;10267882;28;20059;-78
2023/09/26 15:07:39;;;;;;;1.08;0.65;;;;;;;;;;10260552;28;20114;-77
2023/09/26 15:12:42;;;;;;;1.13;0.80;;;;;;;;;;10273018;28;20134;-78
2023/09/26 15:17:45;;;;;;;0.73;0.63;;;;;;;;;;10288409;28;20074;-78
2023/09/26 15:22:50;;;;;;;2.95;1.13;;;;;;;;;;10283721;28;20123;-77
2023/09/26 15:27:53;;;;;;;2.67;0.60;;;;;;;;;;10273400;28;20066;-78
2023/09/26 15:32:57;;;;;;;1.38;0.70;;;;;;;;;;10267576;28;20050;-77
2023/09/26 15:38:01;;;;;;;0.80;0.68;;;;;;;;;;10272563;28;20095;-78
2023/09/26 15:43:05;;;;;;;0.60;0.57;;;;;;;;;;10272807;28;20045;-77
2023/09/26 15:48:08;;;;;;;1.77;0.70;;;;;;;;;;10262121;28;20518;-77
2023/09/26 15:53:13;;;;;;;1.15;0.70;;;;;;;;;;10279177;28;20047;-77
2023/09/26 15:58:16;;;;;;;1.52;0.77;;;;;;;;;;10271260;28;20066;-78
2023/09/26 16:03:20;;;;;;;1.02;0.60;;;;;;;;;;10258830;28;20055;-78
2023/09/26 16:08:24;;;;;;;1.00;0.73;;;;;;;;;;10276321;28;20481;-77
2023/09/26 16:13:28;;;;;;;1.45;0.60;;;;;;;;;;10263977;28;20049;-77
2023/09/26 16:18:31;;;;;;;0.80;0.60;;;;;;;;;;10269401;28;20053;-77
2023/09/26 16:23:36;;;;;;;1.00;0.70;;;;;;;;;;10274664;28;20536;-77
2023/09/26 16:28:39;;;;;;;0.60;0.60;;;;;;;;;;10266338;28;20128;-77
2023/09/26 16:33:43;;;;;;;0.65;0.60;;;;;;;;;;10273380;28;20063;-77
2023/09/26 16:38:47;;;;;;;0.68;0.60;;;;;;;;;;10277410;28;20057;-78
2023/09/26 16:43:50;;;;;;;0.70;0.50;;;;;;;;;;10266528;28;20055;-77
2023/09/26 16:48:54;;;;;;;1.38;0.90;;;;;;;;;;10283094;28;20039;-77
2023/09/26 16:53:59;;;;;;;1.77;0.80;;;;;;;;;;10278523;28;20079;-77
2023/09/26 16:59:02;;;;;;;0.97;0.73;;;;;;;;;;10271736;28;20066;-77
2023/09/26 17:04:06;;;;;;;1.50;0.82;;;;;;;;;;10278877;28;20058;-77
2023/09/26 17:09:10;;;;;;;3.45;0.82;;;;;;;;;;10287899;28;20070;-77
2023/09/26 17:14:13;;;;;;;1.70;0.77;;;;;;;;;;10272707;28;20049;-77
2023/09/26 17:19:17;;;;;;;0.77;0.70;;;;;;;;;;10267719;28;20119;-77
2023/09/26 17:24:21;;;;;;;1.65;0.85;;;;;;;;;;10274463;28;20042;-77
2023/09/26 17:29:25;;;;;;;1.10;0.98;;;;;;;;;;10270020;28;20400;-77
2023/09/26 17:34:28;;;;;;;1.25;0.98;;;;;;;;;;10275828;28;20059;-77
2023/09/26 17:39:32;;;;;;;1.30;1.05;;;;;;;;;;10272735;28;20131;-77
2023/09/26 17:44:36;;;;;;;0.88;0.80;;;;;;;;;;10275978;28;20050;-77
2023/09/26 17:49:39;;;;;;;1.33;0.60;;;;;;;;;;10275631;28;20079;-77
2023/09/26 17:54:44;;;;;;;1.52;0.93;;;;;;;;;;10273473;28;20595;-77
2023/09/26 17:59:47;;;;;;;0.85;0.85;;;;;;;;;;10260233;28;20451;-77
2023/09/26 18:04:54;;;;;;;3.17;1.10;;;;;;;;;;10269934;28;20310;-77
2023/09/26 18:09:59;;;;;;;1.30;0.90;;;;;;;;;;10280132;28;20047;-77
2023/09/26 18:15:03;;;;;;;;;;;;;;;;;;10265184;28;20408;-77
2023/09/26 18:20:08;;;;;;;2.47;1.25;;;;;;;;;;10274961;28;19977;-77
2023/09/26 18:25:13;;;;;;;2.25;1.35;;;;;;;;;;10279398;28;20051;-77
2023/09/26 18:30:17;;;;;;;1.60;1.17;;;;;;;;;;10276779;28;20123;-77
2023/09/26 18:35:21;;;;;;;1.90;1.52;;;;;;;;;;10274505;28;20050;-76
2023/09/26 18:40:25;;;;;;;1.80;1.40;;;;;;;;;;10273139;28;20125;-77
2023/09/26 18:45:31;;;;;;;4.03;1.27;;;;;;;;;;10259938;28;20133;-77
2023/09/26 18:50:34;;;;;;;1.45;1.23;;;;;;;;;;10262100;28;20073;-77
2023/09/26 18:55:39;;;;;;;2.03;1.20;;;;;;;;;;10273621;28;20057;-76
2023/09/26 19:00:42;;;;;;;2.97;1.10;;;;;;;;;;10275901;28;20066;-77
2023/09/26 19:05:48;;;;;;;2.17;1.20;;;;;;;;;;10280027;28;20070;-77
2023/09/26 19:10:53;;;;;;;1.90;1.25;;;;;;;;;;10270044;28;20057;-77
2023/09/26 19:15:56;;;;;;;3.03;1.40;;;;;;;;;;10276905;28;20106;-77
2023/09/26 19:21:00;;;;;;;3.40;1.52;;;;;;;;;;10280201;28;20039;-77
2023/09/26 19:26:05;;;;;;;2.90;1.40;;;;;;;;;;10290373;28;20066;-77
2023/09/26 19:31:12;;;;;;;1.60;1.00;;;;;;;;;;10273675;28;20081;-77
2023/09/26 19:36:15;;;;;;;1.90;1.25;;;;;;;;;;10269790;28;20052;-77
2023/09/26 19:41:20;;;;;;;1.80;1.42;;;;;;;;;;10273005;28;20469;-77
2023/09/26 19:46:23;;;;;;;2.17;1.27;;;;;;;;;;10276629;28;20055;-77
2023/09/26 19:51:28;;;;;;;1.30;1.20;;;;;;;;;;10265488;28;20656;-76
2023/09/26 19:56:32;;;;;;;1.60;1.17;;;;;;;;;;10268931;28;20632;-77
2023/09/26 20:01:36;;;;;;;3.25;1.20;;;;;;;;;;10272519;28;20070;-77
2023/09/26 20:06:40;;;;;;;2.45;1.40;;;;;;;;;;10261553;28;20058;-77
2023/09/26 20:11:45;;;;;;;3.10;1.30;;;;;;;;;;10272703;28;20051;-77
2023/09/26 20:16:48;;;;;;;1.58;1.23;;;;;;;;;;10250364;28;20437;-77
2023/09/26 20:21:51;;;;;;;1.77;1.40;;;;;;;;;;10271922;28;20520;-77
2023/09/26 20:26:56;;;;;;;1.52;1.35;;;;;;;;;;10272835;28;20059;-77
2023/09/26 20:31:59;;;;;;;1.30;1.20;;;;;;;;;;10267955;28;20455;-77
2023/09/26 20:37:03;;;;;;;1.48;1.25;;;;;;;;;;10274654;28;20099;-77
2023/09/26 20:42:07;;;;;;;1.98;1.40;;;;;;;;;;10254887;28;20162;-77
2023/09/26 20:47:11;;;;;;;1.63;1.30;;;;;;;;;;10268982;28;20075;-77
2023/09/26 20:52:14;;;;;;;1.95;1.30;;;;;;;;;;10274795;28;20043;-77
2023/09/26 20:57:19;;;;;;;1.52;1.00;;;;;;;;;;10274855;28;20062;-77
2023/09/26 21:02:22;;;;;;;0.95;0.90;;;;;;;;;;10271575;28;20138;-77
2023/09/26 21:07:25;;;;;;;1.73;1.00;;;;;;;;;;10247311;28;20101;-77
2023/09/26 21:12:30;;;;;;;2.03;1.25;;;;;;;;;;10257572;28;20138;-77
2023/09/26 21:17:33;;;;;;;1.05;0.93;;;;;;;;;;10275874;28;20046;-77
2023/09/26 21:22:36;;;;;;;1.58;1.25;;;;;;;;;;10270542;28;20150;-78
2023/09/26 21:27:41;;;;;;;3.92;1.63;;;;;;;;;;10288822;28;20603;-77
2023/09/26 21:32:45;;;;;;;2.30;1.13;;;;;;;;;;10285092;28;20059;-77
2023/09/26 21:37:49;;;;;;;1.98;1.08;;;;;;;;;;10267866;28;20595;-77
2023/09/26 21:42:53;;;;;;;1.73;1.30;;;;;;;;;;10276833;28;20142;-77
2023/09/26 21:47:57;;;;;;;2.20;1.35;;;;;;;;;;10272645;28;20047;-77
2023/09/26 21:53:00;;;;;;;1.58;1.27;;;;;;;;;;10270955;28;20567;-77
2023/09/26 21:58:05;;;;;;;2.85;1.48;;;;;;;;;;10262703;28;20138;-77
2023/09/26 22:03:08;;;;;;;2.70;1.10;;;;;;;;;;10281054;28;20055;-77
2023/09/26 22:08:13;;;;;;;1.50;1.02;;;;;;;;;;10275212;28;20130;-77
2023/09/26 22:13:18;;;;;;;1.55;1.45;;;;;;;;;;10273296;28;20051;-77
2023/09/26 22:18:23;;;;;;;1.95;1.20;;;;;;;;;;10266364;28;20051;-77
2023/09/26 22:23:27;;;;;;;1.38;1.05;;;;;;;;;;10281607;28;20074;-77
2023/09/26 22:28:32;;;;;;;1.30;1.10;;;;;;;;;;10274299;28;20130;-77
2023/09/26 22:33:35;;;;;;;1.77;1.15;;;;;;;;;;10274357;28;20504;-77
2023/09/26 22:38:39;;;;;;;1.90;1.50;;;;;;;;;;10270554;28;20062;-77
2023/09/26 22:43:43;;;;;;;1.40;1.30;;;;;;;;;;10278229;28;20039;-77
2023/09/26 22:48:47;;;;;;;1.70;1.35;;;;;;;;;;10281222;28;20126;-76
2023/09/26 22:53:50;;;;;;;2.17;1.52;;;;;;;;;;10266432;28;20050;-76
2023/09/26 22:58:55;;;;;;;1.88;1.27;;;;;;;;;;10270920;28;20051;-77
2023/09/26 23:03:59;;;;;;;1.92;1.23;;;;;;;;;;10271595;28;20062;-77
2023/09/26 23:09:02;;;;;;;3.20;1.63;;;;;;;;;;10277302;28;20058;-77
2023/09/26 23:14:07;;;;;;;2.08;1.25;;;;;;;;;;10269611;28;20051;-77
2023/09/26 23:19:11;;;;;;;1.40;1.30;;;;;;;;;;10273388;28;20073;-77
2023/09/26 23:24:17;;;;;;;2.45;1.25;;;;;;;;;;10274636;28;20038;-77
2023/09/26 23:29:22;;;;;;;1.35;1.00;;;;;;;;;;10270635;28;20146;-77
2023/09/26 23:34:26;;;;;;;1.30;1.20;;;;;;;;;;10284231;28;20043;-77
2023/09/26 23:39:29;;;;;;;1.30;1.00;;;;;;;;;;10270939;28;20070;-77
2023/09/26 23:44:35;;;;;;;1.38;1.20;;;;;;;;;;10277090;28;20054;-77
2023/09/26 23:49:38;;;;;;;1.33;1.20;;;;;;;;;;10281782;28;20467;-77
2023/09/26 23:54:41;;;;;;;1.42;0.93;;;;;;;;;;10278554;28;20415;-77
2023/09/26 23:59:46;;;;;;;1.67;1.33;;;;;;;;;;10276517;28;20067;-77
